Cowley, Canada
Current Conditions -  °F | °C
As of 7:00 AM on Tuesday 27 Jan 2015 (Local Time) from CZPC Reporting Station
Clear Clear  
Wind Chill: 40°   Ceiling: Unl
Heat Index: 46°   Visibility: 9mi
Dew Point: 25°   Wind: 15mph
Humidity: 43%   Direction: 270°W
Pressure: 29.82"   Gusts: NA
Location:  49.57°N, 114.07°W
Report Text: CZPC 271400Z AUTO 27013KT 9SM CLR 08/M04 A2982 RMK SLP106 DENSITY ALT 4000FT
Loading
Personal Weather Stations






























Interactive Weather Map New forecast layout! Learn more

10-Day Weather Forecast

Advertisements
Track Severe Weather on mobile